createdAt,value
2022-10-26T00:00:52.330Z,18.33
2022-10-26T00:03:20.815Z,17.50
2022-10-26T00:05:48.703Z,19.60
2022-10-26T00:08:17.653Z,19.67
2022-10-26T00:10:45.559Z,23.53
2022-10-26T00:13:14.429Z,25.40
2022-10-26T00:15:43.145Z,22.20
2022-10-26T00:18:12.394Z,31.37
2022-10-26T00:20:40.286Z,36.40
2022-10-26T00:23:08.186Z,29.57
2022-10-26T00:25:36.084Z,39.70
2022-10-26T00:28:03.990Z,51.67
2022-10-26T00:30:31.934Z,34.13
2022-10-26T00:32:59.820Z,40.23
2022-10-26T00:35:45.147Z,27.33
2022-10-26T00:38:13.746Z,25.17
2022-10-26T00:40:42.230Z,27.60
2022-10-26T00:43:17.114Z,41.77
2022-10-26T00:45:46.058Z,36.00
2022-10-26T00:48:22.218Z,32.63
2022-10-26T00:50:52.563Z,37.93
2022-10-26T00:53:21.510Z,42.50
2022-10-26T00:55:53.436Z,35.70
2022-10-26T00:58:22.744Z,49.40
2022-10-26T01:00:52.330Z,80.80
2022-10-26T01:03:21.327Z,78.60
2022-10-26T01:05:51.681Z,60.70
2022-10-26T01:08:20.225Z,57.53
2022-10-26T01:10:48.721Z,65.33
2022-10-26T01:13:18.154Z,62.17
2022-10-26T01:15:55.790Z,60.00
2022-10-26T01:18:35.442Z,58.60
2022-10-26T01:21:37.225Z,63.40
2022-10-26T01:24:24.470Z,59.07
2022-10-26T01:27:07.656Z,57.70
2022-10-26T01:30:25.152Z,51.60
2022-10-26T01:33:12.569Z,51.30
2022-10-26T01:35:48.869Z,45.87
2022-10-26T01:38:23.649Z,42.37
2022-10-26T01:40:59.389Z,42.83
2022-10-26T01:43:33.026Z,43.43
2022-10-26T01:46:03.783Z,37.87
2022-10-26T01:48:31.714Z,30.53
2022-10-26T01:51:00.734Z,29.93
2022-10-26T01:53:29.581Z,23.20
2022-10-26T01:55:58.086Z,26.20
2022-10-26T01:58:50.548Z,33.07
2022-10-26T02:01:36.499Z,26.80
2022-10-26T02:04:11.756Z,23.13
2022-10-26T02:06:49.299Z,21.50
2022-10-26T02:09:26.796Z,26.20
2022-10-26T02:11:55.608Z,28.30
2022-10-26T02:14:32.985Z,25.47
2022-10-26T02:17:09.888Z,21.27
2022-10-26T02:19:43.657Z,21.10
2022-10-26T02:22:16.860Z,24.83
2022-10-26T02:24:46.056Z,16.87
2022-10-26T02:27:20.227Z,20.83
2022-10-26T02:29:50.420Z,25.73
2022-10-26T02:32:20.972Z,20.97
2022-10-26T02:34:52.360Z,23.17
2022-10-26T02:37:22.732Z,21.47
2022-10-26T02:39:53.923Z,24.73
2022-10-26T02:42:23.436Z,22.20
2022-10-26T02:44:55.092Z,23.73
2022-10-26T02:47:26.176Z,20.03
2022-10-26T02:49:55.169Z,19.23
2022-10-26T02:52:31.464Z,17.33
2022-10-26T02:55:04.708Z,22.63
2022-10-26T02:57:39.658Z,20.90
2022-10-26T03:00:08.767Z,24.60
2022-10-26T03:02:38.019Z,19.53
2022-10-26T03:05:12.716Z,22.97
2022-10-26T03:07:40.635Z,29.83
2022-10-26T03:10:09.323Z,23.93
2022-10-26T03:12:37.216Z,24.67
2022-10-26T03:15:05.876Z,22.40
2022-10-26T03:17:33.828Z,27.87
2022-10-26T03:20:03.132Z,31.80
2022-10-26T03:22:31.040Z,23.93
2022-10-26T03:24:58.961Z,28.70
2022-10-26T03:27:27.135Z,26.23
2022-10-26T03:29:55.203Z,20.53
2022-10-26T03:32:23.089Z,17.20
2022-10-26T03:34:51.009Z,24.17
2022-10-26T03:37:20.282Z,21.43
2022-10-26T03:39:48.192Z,21.37
2022-10-26T03:42:16.091Z,23.10
2022-10-26T03:44:43.991Z,20.60
2022-10-26T03:47:11.886Z,25.20
2022-10-26T03:49:39.771Z,23.57
2022-10-26T03:52:07.659Z,23.90
2022-10-26T03:54:36.919Z,35.43
2022-10-26T03:57:04.838Z,35.90
2022-10-26T03:59:32.738Z,41.70
2022-10-26T04:02:00.680Z,36.60
2022-10-26T04:04:28.694Z,53.63
2022-10-26T04:06:56.651Z,41.10
2022-10-26T04:09:24.735Z,36.83
2022-10-26T04:11:54.022Z,30.63
2022-10-26T04:14:21.919Z,30.97
2022-10-26T04:16:49.828Z,45.83
2022-10-26T04:19:17.706Z,35.10
2022-10-26T04:21:45.598Z,50.10
2022-10-26T04:24:14.159Z,54.73
2022-10-26T04:26:42.050Z,49.83
2022-10-26T04:29:13.735Z,42.07
2022-10-26T04:34:12.762Z,50.73
2022-10-26T04:36:40.958Z,62.53
2022-10-26T04:39:08.862Z,55.47
2022-10-26T04:41:36.794Z,68.70
2022-10-26T04:44:04.691Z,64.13
2022-10-26T04:46:33.950Z,91.93
2022-10-26T04:49:01.810Z,59.63
2022-10-26T04:51:29.822Z,55.80
2022-10-26T04:53:58.234Z,65.37
2022-10-26T04:56:26.190Z,54.27
2022-10-26T04:58:55.365Z,54.60
2022-10-26T05:01:23.599Z,69.87
2022-10-26T05:03:53.682Z,62.40
2022-10-26T05:06:21.737Z,72.13
2022-10-26T05:08:49.842Z,85.57
2022-10-26T05:11:17.818Z,61.70
2022-10-26T05:13:47.751Z,54.77
2022-10-26T05:16:16.307Z,67.23
2022-10-26T05:18:44.201Z,65.07
2022-10-26T05:21:19.273Z,71.87
2022-10-26T05:23:51.309Z,53.67
2022-10-26T05:26:19.329Z,73.47
2022-10-26T05:28:47.429Z,43.87
2022-10-26T05:31:15.621Z,50.27
2022-10-26T05:33:43.578Z,46.57
2022-10-26T05:36:12.945Z,42.43
2022-10-26T05:38:40.826Z,50.90
2022-10-26T05:41:08.721Z,39.97
2022-10-26T05:43:36.605Z,38.53
2022-10-26T05:46:04.601Z,36.17
2022-10-26T05:48:32.494Z,36.70
2022-10-26T05:51:01.412Z,38.40
2022-10-26T05:53:30.686Z,32.70
2022-10-26T05:55:59.401Z,29.00
2022-10-26T05:58:27.782Z,35.40
2022-10-26T06:01:11.549Z,36.43
2022-10-26T06:03:55.589Z,25.70
2022-10-26T06:06:24.522Z,36.23
2022-10-26T06:08:54.408Z,23.90
2022-10-26T06:11:22.913Z,18.90
2022-10-26T06:13:51.501Z,20.83
2022-10-26T06:16:33.165Z,29.40
2022-10-26T06:19:10.041Z,25.93
2022-10-26T06:21:53.492Z,20.90
2022-10-26T06:24:32.492Z,26.27
2022-10-26T06:27:07.877Z,28.17
2022-10-26T06:29:45.895Z,23.10
2022-10-26T06:32:13.840Z,24.70
2022-10-26T06:34:49.868Z,27.60
2022-10-26T06:37:18.527Z,23.13
2022-10-26T06:39:52.692Z,31.73
2022-10-26T06:42:23.114Z,20.63
2022-10-26T06:44:51.873Z,28.60
2022-10-26T06:47:27.087Z,31.97
2022-10-26T06:50:03.751Z,20.90
2022-10-26T06:52:36.888Z,26.63
2022-10-26T06:55:07.164Z,20.40
2022-10-26T06:57:39.098Z,25.63
2022-10-26T07:00:09.397Z,30.50
2022-10-26T07:02:37.357Z,27.20
2022-10-26T07:05:06.275Z,37.53
2022-10-26T07:07:42.603Z,31.13
2022-10-26T07:10:13.300Z,28.00
2022-10-26T07:12:41.405Z,33.27
2022-10-26T07:17:48.105Z,38.33
2022-10-26T07:20:17.086Z,55.03
2022-10-26T07:22:45.179Z,34.93
2022-10-26T07:25:14.660Z,22.93
2022-10-26T07:27:42.563Z,26.90
2022-10-26T07:30:11.502Z,20.90
2022-10-26T07:32:39.542Z,21.43
2022-10-26T07:35:07.911Z,24.10
2022-10-26T07:37:35.822Z,23.00
2022-10-26T07:40:06.540Z,35.57
2022-10-26T07:42:37.102Z,18.77
2022-10-26T07:45:06.353Z,19.60
2022-10-26T07:47:34.236Z,21.90
2022-10-26T07:50:03.328Z,18.60
2022-10-26T07:52:31.216Z,23.67
2022-10-26T07:54:59.124Z,20.60
2022-10-26T07:57:27.010Z,21.50
2022-10-26T07:59:56.428Z,18.57
2022-10-26T08:02:25.568Z,14.40
2022-10-26T08:04:53.507Z,21.90
2022-10-26T08:07:21.736Z,23.70
2022-10-26T08:09:49.704Z,20.90
2022-10-26T08:12:17.611Z,17.33
2022-10-26T08:14:45.931Z,20.73
2022-10-26T08:17:15.327Z,16.77
2022-10-26T08:19:43.202Z,30.10
2022-10-26T08:22:11.316Z,20.10
2022-10-26T08:24:39.253Z,18.90
2022-10-26T08:27:07.984Z,16.77
2022-10-26T08:29:35.912Z,24.30
2022-10-26T08:32:03.845Z,24.00
2022-10-26T08:34:33.141Z,27.60
2022-10-26T08:37:01.075Z,20.73
2022-10-26T08:39:30.683Z,19.20
2022-10-26T08:42:05.119Z,21.20
2022-10-26T08:44:38.598Z,27.83
2022-10-26T08:47:12.019Z,18.93
2022-10-26T08:49:47.244Z,22.40
2022-10-26T08:52:20.349Z,17.50
2022-10-26T08:54:53.168Z,28.13
2022-10-26T08:57:26.114Z,24.50
2022-10-26T08:59:59.361Z,23.17
2022-10-26T09:02:27.548Z,29.50
2022-10-26T09:05:00.196Z,19.90
2022-10-26T09:07:41.237Z,20.37
2022-10-26T09:10:23.228Z,27.53
2022-10-26T09:13:00.233Z,26.40
2022-10-26T09:15:41.204Z,27.37
2022-10-26T09:18:22.954Z,24.23
2022-10-26T09:21:14.988Z,23.33
2022-10-26T09:23:58.295Z,17.67
2022-10-26T09:26:33.598Z,19.13
2022-10-26T09:29:05.901Z,21.53
2022-10-26T09:31:43.520Z,17.93
2022-10-26T09:34:21.903Z,17.57
2022-10-26T09:36:55.782Z,17.23
2022-10-26T09:39:31.660Z,18.77
2022-10-26T09:42:05.527Z,17.70
2022-10-26T09:44:39.080Z,16.30
2022-10-26T09:47:15.271Z,18.23
2022-10-26T09:49:48.728Z,15.57
2022-10-26T09:52:18.276Z,18.93
2022-10-26T09:54:46.549Z,17.17
2022-10-26T09:57:16.649Z,16.00
2022-10-26T09:59:44.776Z,19.30
2022-10-26T10:02:34.705Z,18.77
2022-10-26T10:05:02.888Z,19.40
2022-10-26T10:07:34.570Z,21.77
2022-10-26T10:10:10.136Z,22.03
2022-10-26T10:12:38.110Z,18.83
2022-10-26T10:15:06.698Z,20.77
2022-10-26T10:17:35.080Z,19.87
2022-10-26T10:20:13.540Z,25.53
2022-10-26T10:22:56.738Z,20.87
2022-10-26T10:25:34.113Z,21.73
2022-10-26T10:28:02.090Z,22.33
2022-10-26T10:30:33.864Z,24.00
2022-10-26T10:33:09.489Z,20.07
2022-10-26T10:35:37.605Z,26.67
2022-10-26T10:38:06.961Z,25.17
2022-10-26T10:40:35.792Z,24.00
2022-10-26T10:43:13.876Z,26.83
2022-10-26T10:45:47.355Z,23.73
2022-10-26T10:48:19.100Z,23.87
2022-10-26T10:50:55.564Z,23.90
2022-10-26T10:53:36.061Z,29.20
2022-10-26T10:56:21.843Z,23.90
2022-10-26T10:59:02.821Z,25.50
2022-10-26T11:01:39.122Z,20.07
2022-10-26T11:04:28.623Z,21.73
2022-10-26T11:07:00.636Z,17.37
2022-10-26T11:09:33.424Z,22.30
2022-10-26T11:12:09.659Z,20.87
2022-10-26T11:14:44.190Z,18.20
2022-10-26T11:17:20.846Z,23.77
2022-10-26T11:19:55.446Z,19.97
2022-10-26T11:22:27.475Z,19.60
2022-10-26T11:25:04.158Z,21.90
2022-10-26T11:27:39.652Z,18.83
2022-10-26T11:30:11.006Z,17.97
2022-10-26T11:32:45.109Z,20.50
2022-10-26T11:35:18.017Z,19.93
2022-10-26T11:37:50.977Z,19.03
2022-10-26T11:40:28.079Z,19.13
2022-10-26T11:43:06.500Z,22.03
2022-10-26T11:45:39.844Z,23.13
2022-10-26T11:48:16.471Z,22.00
2022-10-26T11:50:46.815Z,23.13
2022-10-26T11:53:17.982Z,23.53
2022-10-26T11:55:52.607Z,21.87
2022-10-26T11:58:23.932Z,21.53
2022-10-26T12:00:56.312Z,22.53
2022-10-26T12:03:28.318Z,22.47
2022-10-26T12:05:56.248Z,20.37
2022-10-26T12:08:27.661Z,21.13
2022-10-26T12:13:43.539Z,20.43
2022-10-26T12:16:21.945Z,22.07
2022-10-26T12:18:56.007Z,23.47
2022-10-26T12:21:28.764Z,24.00
2022-10-26T12:23:58.620Z,26.10
2022-10-26T12:26:41.818Z,21.97
2022-10-26T12:29:31.931Z,19.40
2022-10-26T12:32:00.187Z,22.77
2022-10-26T12:34:58.474Z,21.97
2022-10-26T12:37:36.830Z,24.03
2022-10-26T12:40:44.855Z,25.23
2022-10-26T12:43:36.974Z,22.40
2022-10-26T12:46:42.074Z,22.57
2022-10-26T12:49:40.516Z,21.63
2022-10-26T12:52:24.185Z,21.07
2022-10-26T12:55:14.322Z,19.63
2022-10-26T12:57:53.478Z,18.40
2022-10-26T13:00:26.622Z,19.70
2022-10-26T13:03:06.638Z,17.67
2022-10-26T13:06:08.279Z,21.27
2022-10-26T13:08:42.379Z,17.53
2022-10-26T13:11:17.551Z,16.03
2022-10-26T13:13:46.282Z,17.97
2022-10-26T13:16:18.194Z,21.30
2022-10-26T13:18:49.323Z,17.63
2022-10-26T13:21:19.200Z,16.23
2022-10-26T13:23:49.372Z,21.07
2022-10-26T13:26:19.699Z,18.43
2022-10-26T13:28:52.966Z,18.70
2022-10-26T13:31:56.857Z,16.53
2022-10-26T13:34:27.577Z,17.20
2022-10-26T13:37:04.770Z,17.00
2022-10-26T13:39:37.579Z,15.50
2022-10-26T13:42:07.942Z,15.17
2022-10-26T13:44:41.458Z,18.03
2022-10-26T13:47:13.170Z,18.93
2022-10-26T13:49:44.222Z,16.03
2022-10-26T13:52:19.018Z,13.63
2022-10-26T13:54:50.130Z,18.87
2022-10-26T13:57:23.430Z,18.13
2022-10-26T13:59:53.230Z,15.90
2022-10-26T14:02:25.923Z,14.30
2022-10-26T14:04:55.693Z,15.63
2022-10-26T14:07:26.898Z,15.90
2022-10-26T14:09:56.888Z,14.77
2022-10-26T14:12:28.376Z,17.10
2022-10-26T14:15:02.600Z,17.53
2022-10-26T14:17:31.952Z,16.00
2022-10-26T14:20:00.282Z,14.07
2022-10-26T14:22:30.569Z,15.37
2022-10-26T14:25:00.043Z,17.83
2022-10-26T14:27:32.496Z,19.00
2022-10-26T14:30:21.674Z,16.70
2022-10-26T14:32:51.817Z,17.50
2022-10-26T14:35:23.158Z,21.40
2022-10-26T14:37:55.018Z,17.30
2022-10-26T14:40:25.629Z,20.00
2022-10-26T14:42:55.913Z,21.63
2022-10-26T14:45:29.786Z,20.87
2022-10-26T14:48:07.798Z,19.63
2022-10-26T14:50:36.601Z,16.97
2022-10-26T14:53:13.120Z,14.43
2022-10-26T14:55:48.503Z,16.63
2022-10-26T14:58:25.432Z,18.60
2022-10-26T15:01:35.848Z,19.33
2022-10-26T15:04:07.974Z,15.77
2022-10-26T15:06:44.383Z,17.37
2022-10-26T15:09:45.953Z,16.60
2022-10-26T15:12:21.921Z,18.17
2022-10-26T15:14:50.870Z,17.47
2022-10-26T15:17:23.829Z,19.23
2022-10-26T15:19:53.728Z,19.33
2022-10-26T15:22:29.531Z,18.17
2022-10-26T15:25:04.205Z,25.17
2022-10-26T15:27:32.301Z,26.80
2022-10-26T15:30:20.565Z,24.77
2022-10-26T15:32:48.980Z,33.27
2022-10-26T15:35:28.120Z,32.33
2022-10-26T15:37:57.242Z,42.27
2022-10-26T15:43:01.818Z,30.03
2022-10-26T15:45:33.094Z,23.77
2022-10-26T15:48:16.859Z,28.00
2022-10-26T15:50:46.091Z,24.67
2022-10-26T15:53:20.352Z,23.80
2022-10-26T15:55:49.075Z,28.60
2022-10-26T15:58:17.067Z,21.10
2022-10-26T16:00:45.004Z,22.40
2022-10-26T16:03:16.954Z,20.90
2022-10-26T16:05:46.412Z,25.73
2022-10-26T16:08:18.449Z,30.43
2022-10-26T16:10:47.984Z,39.23
2022-10-26T16:13:16.507Z,49.27
2022-10-26T16:15:44.813Z,45.40
2022-10-26T16:18:12.929Z,26.23
2022-10-26T16:20:41.432Z,26.70
2022-10-26T16:23:10.697Z,28.63
2022-10-26T16:25:43.413Z,21.77
2022-10-26T16:28:13.596Z,21.37
2022-10-26T16:33:14.791Z,22.73
2022-10-26T16:35:42.710Z,25.00
2022-10-26T16:38:11.968Z,19.83
2022-10-26T16:40:42.600Z,28.03
2022-10-26T16:43:10.649Z,24.87
2022-10-26T16:45:40.695Z,19.87
2022-10-26T16:48:14.361Z,18.70
2022-10-26T16:50:42.509Z,23.13
2022-10-26T16:53:11.793Z,22.13
2022-10-26T16:55:39.803Z,23.60
2022-10-26T16:58:07.722Z,35.47
2022-10-26T17:00:36.288Z,38.77
2022-10-26T17:03:04.249Z,69.07
2022-10-26T17:05:32.241Z,102.13
2022-10-26T17:08:00.133Z,81.03
2022-10-26T17:10:29.403Z,39.37
2022-10-26T17:12:57.740Z,79.57
2022-10-26T17:15:28.919Z,77.03
2022-10-26T17:17:57.154Z,73.33
2022-10-26T17:20:25.068Z,65.07
2022-10-26T17:22:53.163Z,129.33
2022-10-26T17:25:21.184Z,95.97
2022-10-26T17:27:50.428Z,84.70
2022-10-26T17:30:18.473Z,118.20
2022-10-26T17:32:46.368Z,73.03
2022-10-26T17:35:16.845Z,86.97
2022-10-26T17:37:44.847Z,155.73
2022-10-26T17:40:13.476Z,66.30
2022-10-26T17:42:41.427Z,125.83
2022-10-26T17:45:11.511Z,91.47
2022-10-26T17:47:39.659Z,75.80
2022-10-26T17:50:09.125Z,66.23
2022-10-26T17:52:37.468Z,59.40
2022-10-26T17:55:05.908Z,91.60
2022-10-26T17:57:34.183Z,47.90
2022-10-26T18:00:02.132Z,40.53
2022-10-26T18:02:31.579Z,112.50
2022-10-26T18:05:01.510Z,44.13
2022-10-26T18:07:30.944Z,44.10
2022-10-26T18:10:13.553Z,72.07
2022-10-26T18:12:46.752Z,43.30
2022-10-26T18:15:14.837Z,47.63
2022-10-26T18:17:45.164Z,39.83
2022-10-26T18:20:13.239Z,33.00
2022-10-26T18:22:41.160Z,37.43
2022-10-26T18:25:09.802Z,43.40
2022-10-26T18:27:37.697Z,35.67
2022-10-26T18:30:06.549Z,31.60
2022-10-26T18:32:34.446Z,39.80
2022-10-26T18:35:03.686Z,90.17
2022-10-26T18:37:31.562Z,63.17
2022-10-26T18:39:59.489Z,60.53
2022-10-26T18:42:27.397Z,83.53
2022-10-26T18:45:00.509Z,98.70
2022-10-26T18:47:29.683Z,118.20
2022-10-26T18:49:57.811Z,86.20
2022-10-26T18:52:27.905Z,85.17
2022-10-26T18:54:55.928Z,142.60
2022-10-26T18:57:26.979Z,119.23
2022-10-26T18:59:55.343Z,135.90
2022-10-26T19:02:23.486Z,127.00
2022-10-26T19:04:53.671Z,81.70
2022-10-26T19:07:21.539Z,98.80
2022-10-26T19:09:50.800Z,91.17
2022-10-26T19:12:18.676Z,98.50
2022-10-26T19:14:46.596Z,93.37
2022-10-26T19:17:14.476Z,64.50
2022-10-26T19:19:42.373Z,81.30
2022-10-26T19:22:11.070Z,136.63
2022-10-26T19:24:38.980Z,172.80
2022-10-26T19:27:08.275Z,115.40
2022-10-26T19:29:36.304Z,122.07
2022-10-26T19:32:04.324Z,124.50
2022-10-26T19:34:32.221Z,73.17
2022-10-26T19:37:00.140Z,75.27
2022-10-26T19:39:28.040Z,87.33
2022-10-26T19:41:55.932Z,82.20
2022-10-26T19:44:25.624Z,95.40
2022-10-26T19:46:53.728Z,78.67
2022-10-26T19:49:22.460Z,96.57
2022-10-26T19:51:50.336Z,123.47
2022-10-26T19:54:18.264Z,93.83
2022-10-26T19:56:46.173Z,105.37
2022-10-26T19:59:14.345Z,83.67
2022-10-26T20:01:43.714Z,78.23
2022-10-26T20:04:11.916Z,90.23
2022-10-26T20:06:39.929Z,95.63
2022-10-26T20:09:07.863Z,83.40
2022-10-26T20:11:38.094Z,146.03
2022-10-26T20:14:07.389Z,102.53
2022-10-26T20:16:35.309Z,103.73
2022-10-26T20:19:04.749Z,115.50
2022-10-26T20:21:32.751Z,181.50
2022-10-26T20:24:00.638Z,122.33
2022-10-26T20:26:28.806Z,118.50
2022-10-26T20:28:56.856Z,146.67
2022-10-26T20:31:24.764Z,113.97
2022-10-26T20:33:53.487Z,161.90
2022-10-26T20:36:23.655Z,130.93
2022-10-26T20:38:52.172Z,197.73
2022-10-26T20:41:20.687Z,215.90
2022-10-26T20:43:49.996Z,153.80
2022-10-26T20:46:24.276Z,366.57
2022-10-26T20:48:53.612Z,249.37
2022-10-26T20:51:36.976Z,512.43
2022-10-26T20:54:08.695Z,450.27
2022-10-26T20:56:41.410Z,180.23
2022-10-26T20:59:18.308Z,222.23
2022-10-26T21:01:46.269Z,392.50
2022-10-26T21:04:14.247Z,392.17
2022-10-26T21:06:43.467Z,297.57
2022-10-26T21:09:12.477Z,166.40
2022-10-26T21:11:40.829Z,167.90
2022-10-26T21:14:08.765Z,137.27
2022-10-26T21:16:36.628Z,205.07
2022-10-26T21:19:05.251Z,187.03
2022-10-26T21:21:33.183Z,417.87
2022-10-26T21:24:02.776Z,150.00
2022-10-26T21:26:30.702Z,154.93
2022-10-26T21:28:58.659Z,232.53
2022-10-26T21:31:26.535Z,308.90
2022-10-26T21:33:54.461Z,209.17
2022-10-26T21:36:22.968Z,299.73
2022-10-26T21:38:50.843Z,66.93
2022-10-26T21:41:21.733Z,270.90
2022-10-26T21:43:59.293Z,198.87
2022-10-26T21:46:37.422Z,231.03
2022-10-26T21:49:05.536Z,240.87
2022-10-26T21:51:34.938Z,246.70
2022-10-26T21:54:02.998Z,141.97
2022-10-26T21:56:32.236Z,238.97
2022-10-26T21:59:01.397Z,203.77
2022-10-26T22:01:29.652Z,344.30
2022-10-26T22:03:57.611Z,120.90
2022-10-26T22:06:25.588Z,107.70
2022-10-26T22:08:53.846Z,318.00
2022-10-26T22:11:23.904Z,103.63
2022-10-26T22:13:54.025Z,87.37
2022-10-26T22:16:23.581Z,75.57
2022-10-26T22:18:53.152Z,140.67
2022-10-26T22:21:22.396Z,140.27
2022-10-26T22:23:50.325Z,268.50
2022-10-26T22:26:19.660Z,189.63
2022-10-26T22:28:49.326Z,91.13
2022-10-26T22:31:20.873Z,261.73
2022-10-26T22:33:52.484Z,97.70
2022-10-26T22:36:20.392Z,234.63
2022-10-26T22:38:49.779Z,168.37
2022-10-26T22:41:18.396Z,184.00
2022-10-26T22:43:46.384Z,255.57
2022-10-26T22:46:15.906Z,104.77
2022-10-26T22:48:45.528Z,148.20
2022-10-26T22:51:15.309Z,84.53
2022-10-26T22:53:43.948Z,188.07
2022-10-26T22:56:13.744Z,101.90
2022-10-26T22:58:42.068Z,102.90
2022-10-26T23:01:12.398Z,269.47
2022-10-26T23:03:40.592Z,184.93
2022-10-26T23:06:13.676Z,76.20
2022-10-26T23:08:41.619Z,111.47
2022-10-26T23:11:11.645Z,178.17
2022-10-26T23:13:39.579Z,105.90
2022-10-26T23:16:09.130Z,110.90
2022-10-26T23:18:37.500Z,84.77
2022-10-26T23:21:06.808Z,117.13
2022-10-26T23:23:36.562Z,78.00
2022-10-26T23:26:06.934Z,184.40
2022-10-26T23:28:35.388Z,138.47
2022-10-26T23:31:03.494Z,110.63
2022-10-26T23:33:31.732Z,113.83
2022-10-26T23:36:01.224Z,148.50
2022-10-26T23:38:29.240Z,155.07
2022-10-26T23:41:00.835Z,136.40
2022-10-26T23:43:29.379Z,71.53
2022-10-26T23:45:57.330Z,76.17
2022-10-26T23:48:25.390Z,113.03
2022-10-26T23:50:53.364Z,80.27
2022-10-26T23:53:23.827Z,92.80
2022-10-26T23:55:52.396Z,74.00
2022-10-26T23:58:21.656Z,66.63
